Time;durP1;ratioP1;P1;durP2;ratioP2;P2;SDS_P1;SDS_P2;PMS_P1;PMS_P2;Temp;Humidity;BMP_temperature;BMP_pressure;BME280_temperature;BME280_humidity;BME280_pressure;Samples;Min_cycle;Max_cycle;Signal;HPM_P1;HPM_P2
2023/10/17 05:01:10;;;;;;;13.68;7.45;;;;;;;;;;4869870;23;20034;-76
2023/10/17 05:03:13;;;;;;;12.68;7.28;;;;;;;;;;4083499;29;20139;-76
2023/10/17 05:05:40;;;;;;;12.98;7.60;;;;;;;;;;4084221;29;20416;-76
2023/10/17 05:08:11;;;;;;;12.60;7.28;;;;;;;;;;4084186;29;20059;-77
2023/10/17 06:17:57;;;;;;;11.25;7.25;;;;;;;;;;4070300;29;20131;-76
2023/10/17 06:20:00;;;;;;;13.10;7.45;;;;;;;;;;4081916;29;20111;-75
2023/10/17 06:26:58;;;;;;;11.70;7.80;;;;;;;;;;4085016;29;20118;-75
2023/10/17 06:31:34;;;;;;;12.40;7.85;;;;;;;;;;4084930;29;20103;-76
2023/10/17 06:33:37;;;;;;;12.52;8.25;;;;;;;;;;4085774;29;20052;-76
2023/10/17 06:35:44;;;;;;;12.85;7.20;;;;;;;;;;4085797;29;20079;-74
2023/10/17 06:37:49;;;;;;;12.27;7.13;;;;;;;;;;4085827;29;20047;-75
2023/10/17 06:39:50;;;;;;;12.43;6.90;;;;;;;;;;4085867;29;20489;-74
2023/10/17 06:42:00;;;;;;;13.38;7.55;;;;;;;;;;4085661;29;20343;-75
2023/10/17 06:44:06;;;;;;;15.13;7.15;;;;;;;;;;4085699;29;20054;-75
2023/10/17 06:46:12;;;;;;;12.70;6.82;;;;;;;;;;4085815;29;20515;-75
2023/10/17 06:48:13;;;;;;;;;;;;;;;;;;4086008;29;20048;-75
2023/10/17 06:51:15;;;;;;;11.95;6.90;;;;;;;;;;4085603;29;20353;-75
2023/10/17 06:52:54;;;;;;;10.43;6.13;;;;;;;;;;4085052;29;20070;-75
2023/10/17 06:55:01;;;;;;;11.02;7.30;;;;;;;;;;4085595;29;20457;-75
2023/10/17 06:57:18;;;;;;;13.05;7.20;;;;;;;;;;4085477;29;20051;-74
2023/10/17 06:59:24;;;;;;;14.55;6.65;;;;;;;;;;4085440;29;20486;-76
2023/10/17 07:01:28;;;;;;;;;;;;;;;;;;4077293;29;20079;-74
2023/10/17 07:03:34;;;;;;;11.27;6.93;;;;;;;;;;4071244;29;20380;-76
2023/10/17 07:05:36;;;;;;;12.45;7.07;;;;;;;;;;4085301;29;20048;-76
2023/10/17 07:07:40;;;;;;;11.50;6.80;;;;;;;;;;4085328;29;20056;-75
2023/10/17 07:09:42;;;;;;;12.52;8.20;;;;;;;;;;4085087;29;20493;-75
2023/10/17 07:11:47;;;;;;;10.82;6.88;;;;;;;;;;4085233;29;20245;-76
2023/10/17 07:14:23;;;;;;;13.60;7.43;;;;;;;;;;4085107;29;20055;-76
2023/10/17 07:16:33;;;;;;;13.00;7.38;;;;;;;;;;4084875;29;20134;-75
2023/10/17 07:18:44;;;;;;;11.80;7.20;;;;;;;;;;4084841;29;20496;-74
2023/10/17 07:23:13;;;;;;;10.60;6.97;;;;;;;;;;4084259;29;20063;-76
2023/10/17 07:25:18;;;;;;;14.45;8.00;;;;;;;;;;4085224;29;20536;-75
2023/10/17 07:27:35;;;;;;;12.48;7.72;;;;;;;;;;4085122;29;20052;-76
2023/10/17 07:29:36;;;;;;;12.80;7.82;;;;;;;;;;4084962;29;20043;-76
2023/10/17 07:31:38;;;;;;;11.55;7.28;;;;;;;;;;4085053;29;20482;-75
2023/10/17 07:33:43;;;;;;;12.25;8.20;;;;;;;;;;4084708;29;20465;-75
2023/10/17 07:35:45;;;;;;;10.30;7.22;;;;;;;;;;4084872;29;20055;-76
2023/10/17 07:37:54;;;;;;;11.68;7.65;;;;;;;;;;4084681;29;20051;-76
2023/10/17 07:42:32;;;;;;;11.02;7.20;;;;;;;;;;4212585;28;20452;-75
2023/10/17 07:44:41;;;;;;;12.20;7.78;;;;;;;;;;4212471;28;20044;-76
2023/10/17 07:46:44;;;;;;;12.70;6.70;;;;;;;;;;4212152;28;20516;-76
2023/10/17 07:48:48;;;;;;;11.90;7.43;;;;;;;;;;4212483;28;20044;-75
2023/10/17 07:50:50;;;;;;;10.95;6.95;;;;;;;;;;4212366;28;20070;-75
2023/10/17 07:52:59;;;;;;;12.90;8.23;;;;;;;;;;4212414;28;20123;-75
2023/10/17 07:55:17;;;;;;;14.95;8.10;;;;;;;;;;4212375;28;20048;-75
2023/10/17 07:57:23;;;;;;;13.15;7.28;;;;;;;;;;4212416;28;20481;-75
2023/10/17 07:59:31;;;;;;;13.00;7.28;;;;;;;;;;4212139;28;20446;-75
2023/10/17 08:01:41;;;;;;;11.90;7.68;;;;;;;;;;4211898;28;20492;-76
2023/10/17 08:03:54;;;;;;;12.20;7.78;;;;;;;;;;4212223;28;20131;-74
2023/10/17 08:06:05;;;;;;;13.18;7.75;;;;;;;;;;4213227;28;20462;-74
2023/10/17 08:08:13;;;;;;;11.52;7.53;;;;;;;;;;4212912;28;20390;-74
2023/10/17 08:10:29;;;;;;;12.52;7.93;;;;;;;;;;4213599;28;20056;-75
2023/10/17 08:12:33;;;;;;;12.70;7.70;;;;;;;;;;4212837;28;20397;-74
2023/10/17 08:14:41;;;;;;;12.15;7.97;;;;;;;;;;4211750;28;20040;-74
2023/10/17 08:16:43;;;;;;;13.07;8.05;;;;;;;;;;4212321;28;20393;-75
2023/10/17 08:18:47;;;;;;;12.95;8.27;;;;;;;;;;4212331;28;20127;-75
2023/10/17 08:21:07;;;;;;;11.77;7.93;;;;;;;;;;4211921;28;20044;-75
2023/10/17 08:23:10;;;;;;;12.07;7.50;;;;;;;;;;4212219;28;20123;-75
2023/10/17 08:25:14;;;;;;;13.27;8.27;;;;;;;;;;4212097;28;20494;-77
2023/10/17 08:27:41;;;;;;;11.82;7.45;;;;;;;;;;4211936;28;20393;-76
2023/10/17 08:29:42;;;;;;;12.07;7.28;;;;;;;;;;4211739;28;20040;-76
2023/10/17 08:31:45;;;;;;;11.93;8.10;;;;;;;;;;4211825;28;20059;-76
2023/10/17 08:33:50;;;;;;;11.55;7.90;;;;;;;;;;4211795;28;20048;-76
2023/10/17 08:36:01;;;;;;;14.38;8.68;;;;;;;;;;4212002;28;20044;-74
2023/10/17 08:38:04;;;;;;;13.90;8.23;;;;;;;;;;4211872;28;20135;-77
2023/10/17 08:40:29;;;;;;;13.23;8.43;;;;;;;;;;4211902;28;20048;-76
2023/10/17 08:42:31;;;;;;;12.43;8.02;;;;;;;;;;4211135;28;20045;-76
2023/10/17 08:44:35;;;;;;;12.35;8.40;;;;;;;;;;4211786;28;20048;-74
2023/10/17 08:46:38;;;;;;;11.65;7.93;;;;;;;;;;4211742;28;20401;-76
2023/10/17 08:48:43;;;;;;;14.93;8.65;;;;;;;;;;4211565;28;20378;-76
2023/10/17 08:50:45;;;;;;;13.13;8.07;;;;;;;;;;4211754;28;20048;-76
2023/10/17 08:52:48;;;;;;;14.00;8.23;;;;;;;;;;4206394;28;20049;-75
2023/10/17 08:54:51;;;;;;;14.60;8.55;;;;;;;;;;4186625;28;20080;-75
2023/10/17 08:56:53;;;;;;;12.50;7.88;;;;;;;;;;4192822;28;20094;-75
2023/10/17 08:59:03;;;;;;;13.43;8.80;;;;;;;;;;4198332;28;20052;-75
2023/10/17 09:01:11;;;;;;;12.80;8.43;;;;;;;;;;4198210;28;20083;-76
2023/10/17 09:03:23;;;;;;;14.57;9.05;;;;;;;;;;4198140;28;20088;-75
2023/10/17 09:05:26;;;;;;;13.32;9.05;;;;;;;;;;4198043;28;20048;-76
2023/10/17 09:07:32;;;;;;;12.45;8.45;;;;;;;;;;4197874;28;20055;-76
2023/10/17 09:09:34;;;;;;;13.15;8.20;;;;;;;;;;4197712;28;20052;-75
2023/10/17 09:11:41;;;;;;;14.30;8.90;;;;;;;;;;4197460;28;20048;-76
2023/10/17 09:14:14;;;;;;;13.85;8.45;;;;;;;;;;4197853;28;20139;-76
2023/10/17 09:16:14;;;;;;;13.20;8.30;;;;;;;;;;4197783;28;20048;-76
2023/10/17 09:18:21;;;;;;;12.77;7.82;;;;;;;;;;4197738;28;20535;-76
2023/10/17 09:20:36;;;;;;;12.90;8.18;;;;;;;;;;4197965;28;20048;-75
2023/10/17 09:22:40;;;;;;;12.30;8.05;;;;;;;;;;4197691;28;20521;-76
2023/10/17 09:24:45;;;;;;;12.45;8.32;;;;;;;;;;4197514;28;20045;-75
2023/10/17 09:26:48;;;;;;;11.90;8.57;;;;;;;;;;4197531;28;20053;-76
2023/10/17 09:28:50;;;;;;;12.43;8.32;;;;;;;;;;4197707;28;20060;-76
2023/10/17 09:31:06;;;;;;;14.35;9.43;;;;;;;;;;4197220;28;20158;-76
2023/10/17 09:33:08;;;;;;;15.65;9.63;;;;;;;;;;4191979;28;20059;-76
2023/10/17 09:35:11;;;;;;;16.23;9.35;;;;;;;;;;4197611;28;20044;-76
2023/10/17 09:37:14;;;;;;;14.90;9.10;;;;;;;;;;4197517;28;20048;-76
2023/10/17 09:39:18;;;;;;;14.93;8.93;;;;;;;;;;4197448;28;20448;-76
2023/10/17 09:41:21;;;;;;;15.00;8.95;;;;;;;;;;4197208;28;20052;-75
2023/10/17 09:43:23;;;;;;;15.23;8.88;;;;;;;;;;4197592;28;20056;-74
2023/10/17 09:45:25;;;;;;;15.25;8.63;;;;;;;;;;4197442;28;20101;-74
2023/10/17 09:47:29;;;;;;;16.58;9.27;;;;;;;;;;4195472;28;20043;-75
2023/10/17 09:49:39;;;;;;;13.13;9.02;;;;;;;;;;4197568;28;20050;-74
2023/10/17 09:51:46;;;;;;;15.30;9.20;;;;;;;;;;4197571;28;20669;-74
2023/10/17 09:53:53;;;;;;;14.35;8.93;;;;;;;;;;4197231;28;20076;-75
2023/10/17 09:55:55;;;;;;;14.75;9.20;;;;;;;;;;4197385;28;20052;-76
2023/10/17 09:58:02;;;;;;;13.70;8.85;;;;;;;;;;4197339;28;20052;-76
2023/10/17 10:00:14;;;;;;;13.95;9.07;;;;;;;;;;4197201;28;20086;-76
2023/10/17 10:02:20;;;;;;;15.15;9.60;;;;;;;;;;4196662;28;20048;-75
2023/10/17 10:04:22;;;;;;;;;;;;;;;;;;4196488;28;20505;-74
2023/10/17 10:06:27;;;;;;;15.52;9.48;;;;;;;;;;4196690;28;19931;-76
2023/10/17 10:08:32;;;;;;;16.30;9.57;;;;;;;;;;4196934;28;20052;-75
2023/10/17 10:10:55;;;;;;;17.23;10.15;;;;;;;;;;4197103;28;20048;-77
2023/10/17 10:13:06;;;;;;;15.20;9.40;;;;;;;;;;4196835;28;20467;-76
2023/10/17 10:15:08;;;;;;;15.20;9.65;;;;;;;;;;4197072;28;20048;-76
2023/10/17 10:17:17;;;;;;;15.48;9.75;;;;;;;;;;4196033;28;20079;-76
2023/10/17 10:19:19;;;;;;;14.48;9.48;;;;;;;;;;4196523;28;20103;-76
2023/10/17 10:21:22;;;;;;;14.65;9.55;;;;;;;;;;4196481;28;20072;-73
2023/10/17 10:23:35;;;;;;;14.95;10.25;;;;;;;;;;4196685;28;20106;-75
2023/10/17 10:25:37;;;;;;;16.50;10.88;;;;;;;;;;4196827;28;20080;-75
2023/10/17 10:27:40;;;;;;;15.93;9.48;;;;;;;;;;4196202;28;20053;-74
2023/10/17 10:29:43;;;;;;;15.52;9.68;;;;;;;;;;4196380;28;20394;-75
2023/10/17 10:31:45;;;;;;;17.67;9.70;;;;;;;;;;4196510;28;20113;-75
2023/10/17 10:33:50;;;;;;;15.82;9.82;;;;;;;;;;4196519;28;20045;-76
2023/10/17 10:35:52;;;;;;;15.43;10.38;;;;;;;;;;4196457;28;20102;-75
2023/10/17 10:37:54;;;;;;;15.98;10.25;;;;;;;;;;4196388;28;20040;-75
2023/10/17 10:40:14;;;;;;;15.55;10.00;;;;;;;;;;4196462;28;20489;-76
2023/10/17 10:42:16;;;;;;;16.40;10.80;;;;;;;;;;4195805;28;20105;-77
2023/10/17 10:44:20;;;;;;;17.00;11.13;;;;;;;;;;4196361;28;20106;-76
2023/10/17 10:46:22;;;;;;;17.60;11.20;;;;;;;;;;4196390;28;20412;-76
2023/10/17 10:48:26;;;;;;;15.43;10.90;;;;;;;;;;4194431;28;20052;-76
2023/10/17 10:50:29;;;;;;;18.52;10.98;;;;;;;;;;4196242;28;20131;-76
2023/10/17 10:52:31;;;;;;;15.98;11.10;;;;;;;;;;4196360;28;20080;-76
2023/10/17 10:54:50;;;;;;;16.02;11.18;;;;;;;;;;4196026;28;20055;-74
2023/10/17 10:56:52;;;;;;;17.25;11.00;;;;;;;;;;4196155;28;20131;-74
2023/10/17 10:58:56;;;;;;;17.50;11.50;;;;;;;;;;4196123;28;20131;-73
2023/10/17 11:01:02;;;;;;;19.52;11.55;;;;;;;;;;4196092;28;20048;-74
2023/10/17 11:03:07;;;;;;;17.85;11.80;;;;;;;;;;4195941;28;20048;-76
2023/10/17 11:05:12;;;;;;;17.20;11.33;;;;;;;;;;4195646;28;20489;-76
2023/10/17 11:07:21;;;;;;;21.52;13.48;;;;;;;;;;4195697;28;20718;-77
2023/10/17 11:09:24;;;;;;;17.77;11.80;;;;;;;;;;4195903;28;20056;-76
2023/10/17 11:11:26;;;;;;;21.00;12.43;;;;;;;;;;4195903;28;20482;-76
2023/10/17 11:13:34;;;;;;;20.50;11.82;;;;;;;;;;4196004;28;20052;-76
2023/10/17 11:15:36;;;;;;;18.42;11.82;;;;;;;;;;4195662;28;20060;-76
2023/10/17 11:17:42;;;;;;;18.88;12.10;;;;;;;;;;4195810;28;20070;-76
2023/10/17 11:19:45;;;;;;;17.05;11.88;;;;;;;;;;4196022;28;20052;-76
2023/10/17 11:21:55;;;;;;;18.10;10.98;;;;;;;;;;4195865;28;20474;-74
2023/10/17 11:24:00;;;;;;;18.85;11.52;;;;;;;;;;4195812;28;20524;-74
2023/10/17 11:26:07;;;;;;;19.33;12.05;;;;;;;;;;4195831;28;20095;-77
2023/10/17 11:28:09;;;;;;;18.83;12.25;;;;;;;;;;4195737;28;20071;-79
2023/10/17 11:30:18;;;;;;;18.77;12.18;;;;;;;;;;4195552;28;20053;-78
2023/10/17 11:32:21;;;;;;;18.83;12.60;;;;;;;;;;4195850;28;20087;-77
2023/10/17 11:34:33;;;;;;;17.05;11.70;;;;;;;;;;4195653;28;20064;-78
2023/10/17 11:36:46;;;;;;;16.90;10.75;;;;;;;;;;4194863;28;20451;-78
2023/10/17 11:38:55;;;;;;;17.33;11.75;;;;;;;;;;4195996;28;20087;-78
2023/10/17 11:40:59;;;;;;;17.52;11.73;;;;;;;;;;4195718;28;20438;-78
2023/10/17 11:43:15;;;;;;;19.90;12.73;;;;;;;;;;4195440;28;20139;-76
2023/10/17 11:45:25;;;;;;;17.45;11.70;;;;;;;;;;4195909;28;20084;-77
2023/10/17 11:47:36;;;;;;;17.63;12.15;;;;;;;;;;4194095;28;20045;-77
2023/10/17 11:49:41;;;;;;;17.98;12.10;;;;;;;;;;4195888;28;20055;-76
2023/10/17 11:51:43;;;;;;;18.10;11.85;;;;;;;;;;4195642;28;20139;-76
2023/10/17 11:54:05;;;;;;;16.33;11.07;;;;;;;;;;4195474;28;20055;-76
2023/10/17 11:56:08;;;;;;;16.38;11.60;;;;;;;;;;4182580;28;20055;-76
2023/10/17 11:58:11;;;;;;;16.70;10.90;;;;;;;;;;4178769;28;20055;-76
2023/10/17 12:00:22;;;;;;;18.23;11.45;;;;;;;;;;4178875;28;20049;-77
2023/10/17 12:02:24;;;;;;;19.00;11.73;;;;;;;;;;4194032;28;20135;-76
2023/10/17 12:04:27;;;;;;;16.38;11.60;;;;;;;;;;4195551;28;20049;-77
2023/10/17 12:06:30;;;;;;;15.38;10.57;;;;;;;;;;4195033;28;20405;-78
2023/10/17 12:08:33;;;;;;;17.48;11.55;;;;;;;;;;4195415;28;20529;-78
2023/10/17 12:10:36;;;;;;;16.58;11.23;;;;;;;;;;4195303;28;20098;-77
2023/10/17 12:12:39;;;;;;;19.05;11.32;;;;;;;;;;4195338;28;20058;-78
2023/10/17 12:14:41;;;;;;;16.48;11.38;;;;;;;;;;4195287;28;20125;-78
2023/10/17 12:16:44;;;;;;;16.60;11.65;;;;;;;;;;4195084;28;20102;-77
2023/10/17 12:18:46;;;;;;;16.42;10.70;;;;;;;;;;4195264;28;20117;-78
2023/10/17 12:20:49;;;;;;;16.50;11.30;;;;;;;;;;4195323;28;20049;-76
2023/10/17 12:22:56;;;;;;;17.17;11.00;;;;;;;;;;4195207;28;20053;-77
2023/10/17 12:24:58;;;;;;;15.02;10.95;;;;;;;;;;4195095;28;20051;-76
2023/10/17 12:27:00;;;;;;;15.27;10.95;;;;;;;;;;4195203;28;20052;-77
2023/10/17 12:29:02;;;;;;;18.02;10.48;;;;;;;;;;4197560;28;20378;-77
